createdAt,value
2017-11-08T00:00:11.399Z,5.00
2017-11-08T00:02:38.205Z,5.03
2017-11-08T00:05:05.089Z,4.80
2017-11-08T00:07:32.175Z,4.78
2017-11-08T00:09:58.988Z,4.75
2017-11-08T00:12:25.907Z,4.95
2017-11-08T00:14:52.698Z,4.90
2017-11-08T00:17:19.546Z,5.35
2017-11-08T00:19:46.590Z,5.10
2017-11-08T00:22:13.372Z,6.07
2017-11-08T00:24:40.198Z,5.25
2017-11-08T00:27:07.183Z,5.67
2017-11-08T00:29:33.988Z,5.80
2017-11-08T00:32:00.972Z,4.90
2017-11-08T00:34:27.812Z,5.93
2017-11-08T00:36:54.754Z,5.85
2017-11-08T00:39:21.575Z,6.03
2017-11-08T00:41:48.460Z,5.25
2017-11-08T00:44:15.237Z,5.65
2017-11-08T00:46:42.033Z,5.93
2017-11-08T00:49:08.875Z,5.50
2017-11-08T00:51:35.682Z,6.28
2017-11-08T00:54:02.547Z,5.87
2017-11-08T00:56:29.354Z,6.47
2017-11-08T00:58:56.144Z,7.20
2017-11-08T01:01:22.922Z,6.18
2017-11-08T01:03:49.754Z,6.60
2017-11-08T01:06:16.549Z,6.50
2017-11-08T01:08:43.341Z,6.50
2017-11-08T01:11:10.174Z,6.50
2017-11-08T01:13:36.998Z,6.90
2017-11-08T01:16:03.775Z,6.80
2017-11-08T01:18:30.619Z,6.80
2017-11-08T01:20:57.439Z,6.37
2017-11-08T01:23:24.256Z,7.05
2017-11-08T01:25:51.058Z,7.03
2017-11-08T01:28:17.879Z,7.30
2017-11-08T01:30:44.691Z,7.00
2017-11-08T01:33:11.547Z,7.40
2017-11-08T01:35:38.342Z,6.85
2017-11-08T01:38:05.155Z,7.40
2017-11-08T01:40:31.987Z,7.20
2017-11-08T01:42:59.059Z,8.02
2017-11-08T01:45:25.848Z,8.23
2017-11-08T01:47:52.666Z,7.20
2017-11-08T01:50:19.518Z,7.55
2017-11-08T01:52:46.353Z,8.63
2017-11-08T01:55:13.195Z,8.52
2017-11-08T01:57:39.982Z,8.20
2017-11-08T02:00:06.801Z,8.00
2017-11-08T02:02:33.647Z,8.73
2017-11-08T02:05:00.448Z,9.47
2017-11-08T02:07:27.267Z,8.73
2017-11-08T02:09:54.103Z,8.85
2017-11-08T02:12:20.927Z,8.93
2017-11-08T02:14:47.747Z,9.43
2017-11-08T02:17:14.553Z,9.15
2017-11-08T02:19:41.369Z,9.80
2017-11-08T02:22:08.210Z,9.70
2017-11-08T02:24:35.068Z,10.00
2017-11-08T02:27:01.915Z,9.10
2017-11-08T02:29:28.709Z,9.05
2017-11-08T02:31:55.532Z,9.70
2017-11-08T02:34:22.338Z,9.98
2017-11-08T02:36:49.150Z,10.60
2017-11-08T02:39:15.996Z,9.85
2017-11-08T02:41:42.774Z,10.02
2017-11-08T02:44:09.619Z,9.70
2017-11-08T02:46:36.465Z,10.93
2017-11-08T02:49:03.272Z,10.10
2017-11-08T02:51:30.078Z,10.20
2017-11-08T02:53:56.899Z,10.40
2017-11-08T02:56:23.689Z,11.70
2017-11-08T02:58:50.507Z,10.88
2017-11-08T03:01:17.313Z,11.05
2017-11-08T03:03:44.098Z,10.60
2017-11-08T03:06:10.898Z,11.18
2017-11-08T03:08:37.755Z,11.50
2017-11-08T03:11:04.586Z,11.50
2017-11-08T03:13:31.366Z,11.05
2017-11-08T03:15:58.215Z,12.15
2017-11-08T03:18:25.031Z,11.70
2017-11-08T03:20:51.827Z,12.80
2017-11-08T03:23:18.672Z,12.90
2017-11-08T03:25:45.462Z,12.73
2017-11-08T03:28:12.271Z,12.50
2017-11-08T03:30:39.092Z,12.98
2017-11-08T03:33:05.916Z,13.52
2017-11-08T03:35:32.705Z,14.15
2017-11-08T03:37:59.857Z,13.90
2017-11-08T03:40:26.665Z,13.73
2017-11-08T03:42:53.483Z,14.00
2017-11-08T03:45:20.335Z,15.00
2017-11-08T03:47:47.114Z,14.87
2017-11-08T03:50:13.940Z,13.68
2017-11-08T03:52:40.786Z,14.18
2017-11-08T03:55:07.592Z,15.35
2017-11-08T03:57:34.514Z,14.50
2017-11-08T04:00:01.367Z,15.60
2017-11-08T04:02:28.209Z,14.02
2017-11-08T04:04:55.031Z,15.95
2017-11-08T04:07:21.846Z,14.70
2017-11-08T04:09:48.637Z,15.70
2017-11-08T04:12:15.464Z,15.52
2017-11-08T04:14:42.273Z,16.02
2017-11-08T04:17:09.125Z,15.80
2017-11-08T04:19:35.916Z,17.08
2017-11-08T04:22:02.733Z,17.90
2017-11-08T04:24:29.517Z,16.55
2017-11-08T04:26:56.351Z,16.50
2017-11-08T04:29:23.171Z,15.57
2017-11-08T04:31:49.946Z,15.98
2017-11-08T04:34:16.763Z,16.35
2017-11-08T04:36:43.574Z,16.27
2017-11-08T04:39:10.404Z,16.52
2017-11-08T04:41:37.226Z,16.83
2017-11-08T04:44:04.109Z,16.52
2017-11-08T04:46:30.941Z,17.52
2017-11-08T04:48:57.771Z,16.50
2017-11-08T04:51:24.611Z,17.07
2017-11-08T04:53:52.095Z,17.90
2017-11-08T04:56:18.955Z,17.90
2017-11-08T04:58:45.787Z,16.90
2017-11-08T05:01:12.579Z,18.02
2017-11-08T05:03:39.386Z,17.17
2017-11-08T05:06:06.266Z,18.95
2017-11-08T05:08:33.041Z,19.73
2017-11-08T05:10:59.866Z,18.90
2017-11-08T05:13:26.711Z,18.92
2017-11-08T05:15:53.542Z,18.77
2017-11-08T05:18:20.369Z,18.85
2017-11-08T05:20:47.212Z,19.77
2017-11-08T05:23:14.039Z,18.85
2017-11-08T05:25:40.893Z,20.45
2017-11-08T05:28:07.710Z,20.02
2017-11-08T05:30:34.535Z,20.85
2017-11-08T05:33:01.322Z,20.10
2017-11-08T05:35:28.137Z,20.77
2017-11-08T05:37:54.954Z,20.83
2017-11-08T05:40:21.742Z,21.75
2017-11-08T05:42:48.572Z,21.77
2017-11-08T05:45:15.387Z,19.62
2017-11-08T05:47:42.169Z,21.08
2017-11-08T05:50:09.020Z,21.83
2017-11-08T05:52:35.802Z,21.60
2017-11-08T05:55:02.598Z,21.10
2017-11-08T05:57:29.423Z,21.08
2017-11-08T05:59:56.286Z,22.33
2017-11-08T06:02:23.069Z,21.87
2017-11-08T06:04:49.908Z,22.55
2017-11-08T06:07:16.700Z,22.92
2017-11-08T06:09:43.590Z,22.13
2017-11-08T06:12:10.370Z,22.03
2017-11-08T06:14:37.191Z,21.52
2017-11-08T06:17:03.999Z,21.60
2017-11-08T06:19:30.797Z,21.37
2017-11-08T06:21:57.651Z,23.20
2017-11-08T06:24:24.451Z,23.30
2017-11-08T06:26:51.242Z,22.87
2017-11-08T06:29:18.042Z,23.70
2017-11-08T06:31:44.877Z,23.75
2017-11-08T06:34:11.742Z,23.23
2017-11-08T06:36:38.551Z,23.62
2017-11-08T06:39:05.342Z,25.02
2017-11-08T06:41:32.191Z,23.25
2017-11-08T06:43:59.055Z,24.08
2017-11-08T06:46:25.899Z,24.05
2017-11-08T06:48:52.687Z,24.55
2017-11-08T06:51:19.511Z,23.40
2017-11-08T06:53:46.306Z,24.80
2017-11-08T06:56:13.130Z,24.02
2017-11-08T06:58:39.988Z,24.15
2017-11-08T07:01:06.780Z,25.20
2017-11-08T07:03:33.613Z,24.42
2017-11-08T07:06:00.410Z,24.37
2017-11-08T07:08:27.255Z,23.27
2017-11-08T07:10:54.070Z,24.00
2017-11-08T07:13:20.861Z,24.63
2017-11-08T07:15:47.685Z,24.10
2017-11-08T07:18:14.591Z,25.05
2017-11-08T07:20:41.667Z,25.42
2017-11-08T07:23:08.485Z,24.77
2017-11-08T07:25:35.311Z,24.12
2017-11-08T07:28:02.138Z,25.42
2017-11-08T07:30:29.012Z,25.08
2017-11-08T07:32:55.796Z,25.00
2017-11-08T07:35:22.791Z,27.23
2017-11-08T07:37:49.574Z,26.27
2017-11-08T07:40:16.366Z,26.23
2017-11-08T07:42:43.214Z,25.75
2017-11-08T07:45:10.046Z,27.15
2017-11-08T07:47:36.870Z,27.05
2017-11-08T07:50:04.906Z,27.08
2017-11-08T07:52:31.727Z,25.70
2017-11-08T07:54:58.608Z,28.17
2017-11-08T07:57:25.460Z,27.13
2017-11-08T07:59:52.311Z,27.53
2017-11-08T08:02:19.179Z,27.85
2017-11-08T08:04:46.003Z,28.27
2017-11-08T08:07:12.879Z,27.08
2017-11-08T08:09:39.760Z,26.20
2017-11-08T08:12:06.712Z,26.98
2017-11-08T08:14:33.861Z,26.25
2017-11-08T08:17:00.844Z,26.95
2017-11-08T08:19:27.691Z,27.48
2017-11-08T08:21:54.609Z,27.58
2017-11-08T08:24:21.477Z,27.02
2017-11-08T08:26:48.390Z,27.73
2017-11-08T08:29:15.258Z,27.27
2017-11-08T08:31:42.116Z,27.50
2017-11-08T08:34:08.975Z,27.17
2017-11-08T08:36:35.826Z,26.80
2017-11-08T08:39:02.682Z,26.80
2017-11-08T08:41:29.553Z,28.15
2017-11-08T08:43:56.380Z,26.98
2017-11-08T08:46:23.247Z,27.90
2017-11-08T08:48:50.103Z,28.52
2017-11-08T08:51:16.927Z,27.80
2017-11-08T08:53:43.766Z,28.13
2017-11-08T08:56:10.617Z,27.85
2017-11-08T08:58:37.758Z,27.00
2017-11-08T09:01:04.667Z,28.00
2017-11-08T09:03:31.517Z,28.55
2017-11-08T09:05:58.390Z,28.58
2017-11-08T09:08:25.271Z,28.08
2017-11-08T09:10:52.196Z,28.65
2017-11-08T09:13:19.072Z,28.70
2017-11-08T09:15:45.916Z,29.70
2017-11-08T09:18:12.793Z,29.42
2017-11-08T09:20:39.679Z,29.15
2017-11-08T09:23:06.516Z,29.20
2017-11-08T09:25:33.415Z,30.20
2017-11-08T09:28:00.283Z,30.85
2017-11-08T09:30:27.253Z,29.02
2017-11-08T09:32:54.131Z,28.95
2017-11-08T09:35:21.398Z,27.58
2017-11-08T09:37:48.345Z,47.00
2017-11-08T09:40:15.244Z,28.90
2017-11-08T09:42:42.121Z,29.10
2017-11-08T09:45:08.943Z,31.00
2017-11-08T09:47:35.824Z,30.12
2017-11-08T09:50:02.688Z,32.90
2017-11-08T09:52:29.545Z,30.02
2017-11-08T09:54:56.434Z,28.08
2017-11-08T09:57:23.259Z,29.50
2017-11-08T09:59:50.120Z,29.48
2017-11-08T10:02:17.001Z,29.33
2017-11-08T10:04:43.874Z,29.50
2017-11-08T10:07:11.031Z,29.80
2017-11-08T10:09:37.908Z,30.73
2017-11-08T10:12:04.789Z,30.20
2017-11-08T10:14:31.648Z,29.58
2017-11-08T10:16:58.621Z,29.85
2017-11-08T10:19:25.423Z,30.20
2017-11-08T10:21:52.302Z,30.20
2017-11-08T10:24:19.139Z,29.23
2017-11-08T10:26:46.161Z,29.10
2017-11-08T10:29:13.033Z,30.15
2017-11-08T10:31:39.865Z,29.08
2017-11-08T10:34:06.729Z,29.17
2017-11-08T10:36:33.940Z,28.60
2017-11-08T10:39:00.785Z,28.33
2017-11-08T10:41:27.678Z,29.48
2017-11-08T10:43:54.489Z,29.30
2017-11-08T10:46:21.359Z,29.17
2017-11-08T10:48:48.185Z,29.10
2017-11-08T10:51:15.095Z,30.77
2017-11-08T10:53:41.909Z,27.85
2017-11-08T10:56:08.778Z,27.62
2017-11-08T10:58:35.636Z,27.42
2017-11-08T11:01:02.496Z,26.70
2017-11-08T11:03:29.383Z,28.30
2017-11-08T11:05:56.239Z,26.70
2017-11-08T11:08:23.106Z,26.80
2017-11-08T11:10:50.005Z,27.37
2017-11-08T11:13:17.173Z,27.30
2017-11-08T11:15:44.066Z,29.27
2017-11-08T11:18:10.942Z,29.77
2017-11-08T11:20:38.204Z,29.85
2017-11-08T11:23:05.110Z,29.20
2017-11-08T11:25:31.966Z,28.25
2017-11-08T11:27:58.873Z,29.80
2017-11-08T11:30:25.732Z,28.48
2017-11-08T11:32:52.608Z,28.50
2017-11-08T11:35:19.489Z,28.90
2017-11-08T11:37:46.389Z,28.73
2017-11-08T11:40:13.269Z,28.83
2017-11-08T11:42:40.173Z,29.40
2017-11-08T11:45:07.081Z,29.73
2017-11-08T11:47:33.957Z,29.35
2017-11-08T11:50:00.874Z,29.30
2017-11-08T11:52:27.716Z,28.90
2017-11-08T11:54:54.590Z,29.60
2017-11-08T11:57:21.484Z,29.65
2017-11-08T11:59:48.381Z,31.35
2017-11-08T12:02:15.216Z,30.08
2017-11-08T12:04:42.118Z,30.57
2017-11-08T12:07:09.023Z,31.50
2017-11-08T12:09:35.913Z,31.02
2017-11-08T12:12:03.734Z,31.85
2017-11-08T12:14:30.634Z,31.85
2017-11-08T12:16:57.535Z,31.87
2017-11-08T12:19:24.437Z,31.50
2017-11-08T12:21:51.657Z,30.10
2017-11-08T12:24:18.573Z,30.25
2017-11-08T12:26:45.496Z,29.45
2017-11-08T12:29:12.796Z,29.90
2017-11-08T12:31:39.665Z,28.87
2017-11-08T12:34:06.565Z,30.27
2017-11-08T12:36:33.448Z,28.73
2017-11-08T12:39:00.314Z,29.33
2017-11-08T12:41:27.226Z,29.33
2017-11-08T12:43:54.085Z,29.10
2017-11-08T12:46:20.993Z,29.27
2017-11-08T12:48:48.161Z,30.48
2017-11-08T12:51:15.039Z,29.77
2017-11-08T12:53:42.182Z,30.25
2017-11-08T12:56:09.057Z,30.33
2017-11-08T12:58:35.938Z,29.77
2017-11-08T13:01:02.830Z,30.95
2017-11-08T13:03:29.685Z,29.83
2017-11-08T13:05:56.552Z,29.20
2017-11-08T13:08:23.428Z,29.77
2017-11-08T13:10:50.349Z,30.88
2017-11-08T13:13:17.231Z,29.02
2017-11-08T13:15:44.116Z,29.50
2017-11-08T13:18:10.990Z,29.20
2017-11-08T13:20:37.892Z,28.87
2017-11-08T13:23:04.818Z,28.33
2017-11-08T13:25:31.689Z,28.67
2017-11-08T13:27:58.638Z,29.17
2017-11-08T13:30:25.507Z,28.83
2017-11-08T13:32:52.348Z,29.50
2017-11-08T13:35:19.522Z,29.40
2017-11-08T13:37:46.430Z,29.08
2017-11-08T13:40:13.329Z,30.00
2017-11-08T13:42:40.228Z,29.00
2017-11-08T13:45:07.107Z,30.02
2017-11-08T13:47:33.998Z,30.05
2017-11-08T13:50:00.893Z,30.42
2017-11-08T13:52:27.745Z,30.62
2017-11-08T13:54:54.612Z,30.80
2017-11-08T13:57:21.510Z,30.70
2017-11-08T13:59:48.387Z,29.98
2017-11-08T14:02:15.230Z,29.98
2017-11-08T14:04:42.120Z,30.62
2017-11-08T14:07:08.980Z,31.55
2017-11-08T14:09:35.827Z,30.58
2017-11-08T14:12:02.713Z,29.37
2017-11-08T14:14:29.833Z,29.77
2017-11-08T14:16:56.672Z,29.02
2017-11-08T14:19:23.532Z,29.27
2017-11-08T14:21:50.670Z,31.02
2017-11-08T14:24:17.536Z,31.05
2017-11-08T14:26:44.421Z,29.98
2017-11-08T14:29:11.275Z,29.80
2017-11-08T14:31:38.120Z,30.92
2017-11-08T14:34:05.297Z,29.73
2017-11-08T14:36:32.112Z,30.33
2017-11-08T14:38:58.940Z,31.80
2017-11-08T14:41:25.805Z,29.33
2017-11-08T14:43:52.718Z,31.87
2017-11-08T14:46:19.602Z,30.08
2017-11-08T14:48:46.497Z,30.52
2017-11-08T14:51:13.341Z,30.15
2017-11-08T14:53:40.191Z,31.58
2017-11-08T14:56:07.015Z,30.77
2017-11-08T14:58:33.901Z,30.25
2017-11-08T15:01:00.776Z,31.00
2017-11-08T15:03:27.662Z,31.63
2017-11-08T15:05:54.488Z,30.70
2017-11-08T15:08:21.372Z,33.13
2017-11-08T15:10:48.236Z,31.48
2017-11-08T15:13:15.110Z,33.00
2017-11-08T15:15:41.996Z,31.15
2017-11-08T15:18:08.820Z,34.05
2017-11-08T15:20:35.675Z,33.28
2017-11-08T15:23:02.521Z,32.47
2017-11-08T15:25:29.423Z,33.03
2017-11-08T15:27:56.291Z,33.03
2017-11-08T15:30:23.145Z,33.38
2017-11-08T15:32:50.005Z,34.33
2017-11-08T15:35:16.866Z,33.22
2017-11-08T15:37:43.745Z,34.10
2017-11-08T15:40:10.597Z,34.17
2017-11-08T15:42:37.461Z,33.88
2017-11-08T15:45:04.305Z,33.70
2017-11-08T15:47:31.153Z,34.27
2017-11-08T15:49:57.992Z,33.37
2017-11-08T15:52:24.882Z,31.92
2017-11-08T15:54:51.709Z,33.20
2017-11-08T15:57:18.582Z,33.35
2017-11-08T15:59:45.438Z,33.75
2017-11-08T16:02:12.257Z,34.33
2017-11-08T16:04:39.145Z,34.25
2017-11-08T16:07:06.010Z,33.55
2017-11-08T16:09:32.844Z,32.50
2017-11-08T16:11:59.681Z,32.17
2017-11-08T16:14:26.525Z,32.17
2017-11-08T16:16:53.733Z,32.35
2017-11-08T16:19:20.582Z,32.78
2017-11-08T16:21:47.443Z,33.72
2017-11-08T16:24:14.300Z,34.17
2017-11-08T16:26:41.224Z,33.40
2017-11-08T16:29:08.079Z,32.60
2017-11-08T16:31:34.920Z,31.30
2017-11-08T16:34:01.773Z,32.85
2017-11-08T16:36:28.637Z,31.60
2017-11-08T16:38:55.472Z,32.60
2017-11-08T16:41:22.292Z,32.97
2017-11-08T16:43:49.165Z,32.17
2017-11-08T16:46:16.020Z,33.42
2017-11-08T16:48:42.921Z,33.55
2017-11-08T16:51:09.749Z,34.90
2017-11-08T16:53:36.576Z,32.30
2017-11-08T16:56:03.454Z,32.40
2017-11-08T16:58:30.274Z,32.60
2017-11-08T17:00:57.144Z,31.70
2017-11-08T17:03:23.976Z,32.95
2017-11-08T17:05:50.831Z,32.83
2017-11-08T17:08:17.957Z,32.60
2017-11-08T17:10:44.821Z,31.73
2017-11-08T17:13:11.680Z,31.85
2017-11-08T17:15:38.533Z,31.40
2017-11-08T17:18:05.381Z,33.10
2017-11-08T17:20:32.229Z,31.77
2017-11-08T17:22:59.086Z,33.80
2017-11-08T17:25:25.971Z,32.50
2017-11-08T17:27:52.839Z,32.55
2017-11-08T17:30:19.721Z,32.45
2017-11-08T17:32:46.544Z,33.10
2017-11-08T17:35:13.631Z,32.60
2017-11-08T17:37:40.505Z,31.50
2017-11-08T17:40:07.353Z,33.50
2017-11-08T17:42:34.471Z,32.45
2017-11-08T17:45:01.285Z,32.00
2017-11-08T17:47:28.844Z,32.97
2017-11-08T17:49:56.274Z,32.77
2017-11-08T17:52:23.680Z,33.47
2017-11-08T17:54:51.308Z,31.70
2017-11-08T17:57:18.713Z,32.30
2017-11-08T17:59:46.423Z,32.53
2017-11-08T18:02:13.422Z,31.65
2017-11-08T18:04:40.301Z,32.75
2017-11-08T18:07:07.172Z,32.78
2017-11-08T18:09:34.248Z,32.63
2017-11-08T18:12:01.111Z,32.40
2017-11-08T18:14:27.985Z,31.45
2017-11-08T18:16:54.808Z,31.62
2017-11-08T18:19:21.644Z,32.67
2017-11-08T18:21:48.777Z,31.60
2017-11-08T18:24:15.608Z,31.65
2017-11-08T18:26:42.454Z,31.67
2017-11-08T18:29:09.306Z,31.60
2017-11-08T18:31:36.151Z,31.57
2017-11-08T18:34:02.980Z,31.90
2017-11-08T18:36:29.802Z,31.23
2017-11-08T18:38:56.648Z,31.33
2017-11-08T18:41:23.484Z,32.60
2017-11-08T18:43:50.315Z,32.30
2017-11-08T18:46:17.152Z,30.35
2017-11-08T18:48:44.046Z,31.50
2017-11-08T18:51:10.915Z,32.30
2017-11-08T18:53:37.728Z,32.40
2017-11-08T18:56:04.573Z,30.45
2017-11-08T18:58:31.441Z,31.77
2017-11-08T19:00:58.575Z,30.23
2017-11-08T19:03:25.432Z,31.27
2017-11-08T19:05:52.278Z,31.40
2017-11-08T19:08:19.111Z,31.42
2017-11-08T19:10:45.942Z,30.40
2017-11-08T19:13:12.834Z,31.08
2017-11-08T19:15:39.664Z,30.10
2017-11-08T19:18:06.512Z,30.90
2017-11-08T19:20:33.405Z,31.00
2017-11-08T19:23:00.281Z,31.52
2017-11-08T19:25:27.145Z,31.15
2017-11-08T19:27:53.984Z,32.60
2017-11-08T19:30:21.092Z,32.75
2017-11-08T19:32:47.961Z,30.73
2017-11-08T19:35:14.818Z,31.48
2017-11-08T19:37:41.651Z,31.60
2017-11-08T19:40:08.552Z,30.67
2017-11-08T19:42:35.415Z,31.17
2017-11-08T19:45:02.264Z,30.90
2017-11-08T19:47:29.134Z,46.13
2017-11-08T19:49:55.956Z,47.35
2017-11-08T19:52:22.829Z,66.47
2017-11-08T19:54:49.652Z,32.13
2017-11-08T19:57:16.468Z,32.80
2017-11-08T19:59:43.304Z,32.10
2017-11-08T20:02:10.143Z,32.47
2017-11-08T20:04:37.061Z,33.28
2017-11-08T20:07:03.920Z,31.87
2017-11-08T20:09:30.765Z,32.53
2017-11-08T20:11:57.637Z,31.40
2017-11-08T20:14:24.464Z,32.30
2017-11-08T20:16:51.297Z,30.47
2017-11-08T20:19:18.147Z,32.35
2017-11-08T20:21:44.972Z,31.55
2017-11-08T20:24:11.808Z,32.38
2017-11-08T20:26:38.660Z,32.15
2017-11-08T20:29:05.842Z,32.70
2017-11-08T20:31:32.706Z,32.90
2017-11-08T20:33:59.569Z,33.00
2017-11-08T20:36:26.677Z,32.33
2017-11-08T20:38:53.538Z,33.45
2017-11-08T20:41:20.413Z,31.70
2017-11-08T20:43:47.512Z,33.28
2017-11-08T20:46:14.576Z,32.63
2017-11-08T20:48:41.418Z,32.22
2017-11-08T20:51:08.280Z,36.00
2017-11-08T20:53:35.124Z,33.60
2017-11-08T20:56:02.009Z,33.00
2017-11-08T20:58:28.850Z,32.45
2017-11-08T21:00:55.679Z,32.42
2017-11-08T21:03:22.549Z,33.78
2017-11-08T21:05:49.392Z,32.85
2017-11-08T21:08:16.325Z,33.80
2017-11-08T21:10:43.190Z,32.30
2017-11-08T21:13:10.027Z,32.92
2017-11-08T21:15:37.193Z,32.40
2017-11-08T21:18:04.291Z,32.63
2017-11-08T21:20:31.158Z,32.53
2017-11-08T21:22:58.014Z,31.80
2017-11-08T21:25:24.841Z,32.40
2017-11-08T21:27:51.704Z,33.63
2017-11-08T21:30:18.555Z,32.85
2017-11-08T21:32:45.410Z,33.63
2017-11-08T21:35:12.285Z,33.63
2017-11-08T21:37:39.178Z,32.50
2017-11-08T21:40:06.009Z,33.53
2017-11-08T21:42:32.887Z,33.90
2017-11-08T21:44:59.774Z,33.13
2017-11-08T21:47:26.654Z,32.88
2017-11-08T21:49:53.510Z,31.27
2017-11-08T21:52:21.203Z,31.17
2017-11-08T21:54:48.097Z,30.05
2017-11-08T21:57:14.911Z,30.55
2017-11-08T21:59:41.750Z,31.90
2017-11-08T22:02:08.643Z,31.60
2017-11-08T22:04:35.485Z,30.85
2017-11-08T22:07:03.153Z,29.90
2017-11-08T22:09:30.002Z,31.23
2017-11-08T22:11:56.841Z,32.90
2017-11-08T22:14:23.999Z,32.00
2017-11-08T22:16:50.824Z,32.93
2017-11-08T22:19:17.982Z,31.33
2017-11-08T22:21:44.805Z,30.00
2017-11-08T22:24:11.644Z,31.80
2017-11-08T22:26:38.476Z,30.70
2017-11-08T22:29:05.329Z,30.88
2017-11-08T22:31:32.221Z,30.00
2017-11-08T22:33:59.108Z,32.28
2017-11-08T22:36:26.580Z,32.08
2017-11-08T22:38:53.472Z,31.58
2017-11-08T22:41:20.310Z,65.47
2017-11-08T22:43:47.307Z,74.78
2017-11-08T22:46:14.150Z,46.50
2017-11-08T22:48:41.030Z,51.72
2017-11-08T22:51:07.898Z,52.13
2017-11-08T22:53:34.741Z,42.25
2017-11-08T22:56:01.614Z,41.25
2017-11-08T22:58:28.489Z,36.65
2017-11-08T23:00:55.323Z,33.60
2017-11-08T23:03:22.226Z,31.23
2017-11-08T23:05:49.059Z,30.73
2017-11-08T23:08:15.939Z,30.27
2017-11-08T23:10:42.793Z,30.85
2017-11-08T23:13:09.621Z,30.57
2017-11-08T23:15:36.466Z,31.40
2017-11-08T23:18:03.361Z,33.15
2017-11-08T23:20:30.231Z,34.40
2017-11-08T23:22:57.067Z,33.30
2017-11-08T23:25:23.945Z,33.38
2017-11-08T23:27:50.785Z,33.67
2017-11-08T23:30:17.603Z,32.25
2017-11-08T23:32:45.353Z,31.50
2017-11-08T23:35:12.172Z,32.83
2017-11-08T23:37:39.016Z,32.57
2017-11-08T23:40:05.896Z,32.60
2017-11-08T23:42:32.708Z,32.72
2017-11-08T23:44:59.541Z,31.83
2017-11-08T23:47:26.392Z,31.35
2017-11-08T23:49:53.227Z,32.03
2017-11-08T23:52:20.086Z,33.00
2017-11-08T23:54:46.946Z,33.35
2017-11-08T23:57:14.055Z,31.27
2017-11-08T23:59:40.880Z,33.60
